createdAt,value
2023-02-09T00:01:10.674Z,86.57
2023-02-09T00:03:38.541Z,87.88
2023-02-09T00:06:07.985Z,89.30
2023-02-09T00:08:36.561Z,85.25
2023-02-09T00:11:52.221Z,87.30
2023-02-09T00:14:22.090Z,84.28
2023-02-09T00:16:50.740Z,85.80
2023-02-09T00:19:20.416Z,88.80
2023-02-09T00:21:48.736Z,86.50
2023-02-09T00:24:15.828Z,82.13
2023-02-09T00:26:42.846Z,86.85
2023-02-09T00:29:10.249Z,81.95
2023-02-09T00:31:38.116Z,85.22
2023-02-09T00:34:05.494Z,84.97
2023-02-09T00:36:33.284Z,84.15
2023-02-09T00:39:00.285Z,85.53
2023-02-09T00:41:46.874Z,84.07
2023-02-09T00:44:13.785Z,80.30
2023-02-09T00:46:40.623Z,76.60
2023-02-09T00:49:07.635Z,78.88
2023-02-09T00:51:34.665Z,81.60
2023-02-09T00:54:01.575Z,78.55
2023-02-09T00:56:28.390Z,78.40
2023-02-09T00:58:55.255Z,78.47
2023-02-09T01:01:22.158Z,77.25
2023-02-09T01:03:49.016Z,81.65
2023-02-09T01:06:15.911Z,72.55
2023-02-09T01:08:42.722Z,82.35
2023-02-09T01:11:12.280Z,82.10
2023-02-09T01:13:39.648Z,77.63
2023-02-09T01:16:13.962Z,72.25
2023-02-09T01:18:41.699Z,84.10
2023-02-09T01:21:18.369Z,73.22
2023-02-09T01:23:46.315Z,81.97
2023-02-09T01:26:15.741Z,79.25
2023-02-09T01:28:43.299Z,74.70
2023-02-09T01:31:28.032Z,85.00
2023-02-09T01:33:58.077Z,81.18
2023-02-09T01:36:24.994Z,78.57
2023-02-09T01:38:54.810Z,82.60
2023-02-09T01:41:22.541Z,75.97
2023-02-09T01:44:05.023Z,85.25
2023-02-09T01:46:35.407Z,85.82
2023-02-09T01:49:13.398Z,78.75
2023-02-09T01:51:52.027Z,87.22
2023-02-09T01:54:33.880Z,79.00
2023-02-09T01:57:09.686Z,78.22
2023-02-09T01:59:40.452Z,78.07
2023-02-09T02:02:09.066Z,85.32
2023-02-09T02:04:37.666Z,84.03
2023-02-09T02:07:20.716Z,77.97
2023-02-09T02:09:48.186Z,79.90
2023-02-09T02:12:15.898Z,87.28
2023-02-09T02:14:42.753Z,78.70
2023-02-09T02:17:35.226Z,84.22
2023-02-09T02:20:33.625Z,65.60
2023-02-09T02:23:13.078Z,77.93
2023-02-09T02:26:05.273Z,86.60
2023-02-09T02:28:55.018Z,80.13
2023-02-09T02:32:05.906Z,83.47
2023-02-09T02:34:41.322Z,81.38
2023-02-09T02:37:25.398Z,79.60
2023-02-09T02:40:28.117Z,80.28
2023-02-09T02:43:24.694Z,82.90
2023-02-09T02:46:26.729Z,78.53
2023-02-09T02:48:59.996Z,73.40
2023-02-09T02:51:44.443Z,79.18
2023-02-09T02:54:34.436Z,80.40
2023-02-09T02:57:14.938Z,81.70
2023-02-09T02:59:59.105Z,86.93
2023-02-09T03:02:38.597Z,79.38
2023-02-09T03:05:07.704Z,80.38
2023-02-09T03:07:34.695Z,78.70
2023-02-09T03:10:03.232Z,83.53
2023-02-09T03:13:14.579Z,78.57
2023-02-09T03:15:51.323Z,84.38
2023-02-09T03:18:33.098Z,79.28
2023-02-09T03:21:08.050Z,81.15
2023-02-09T03:24:05.722Z,81.57
2023-02-09T03:26:49.290Z,85.03
2023-02-09T03:29:19.861Z,82.65
2023-02-09T03:31:49.023Z,75.85
2023-02-09T03:34:16.929Z,83.10
2023-02-09T03:36:50.291Z,89.65
2023-02-09T03:39:17.162Z,81.28
2023-02-09T03:41:44.007Z,84.22
2023-02-09T03:44:29.257Z,84.53
2023-02-09T03:47:03.160Z,82.70
2023-02-09T03:49:39.234Z,84.30
2023-02-09T03:52:10.242Z,87.07
2023-02-09T03:54:37.543Z,83.45
2023-02-09T03:57:05.502Z,84.72
2023-02-09T03:59:35.494Z,85.70
2023-02-09T04:02:05.709Z,81.82
2023-02-09T04:04:32.700Z,84.45
2023-02-09T04:07:00.016Z,91.25
2023-02-09T04:09:28.556Z,83.53
2023-02-09T04:11:55.945Z,84.97
2023-02-09T04:14:23.047Z,84.68
2023-02-09T04:16:50.064Z,86.72
2023-02-09T04:19:17.017Z,91.18
2023-02-09T04:21:43.944Z,85.47
2023-02-09T04:24:11.284Z,78.88
2023-02-09T04:26:38.206Z,84.22
2023-02-09T04:29:05.229Z,81.95
2023-02-09T04:31:32.571Z,89.18
2023-02-09T04:33:59.461Z,88.63
2023-02-09T04:36:26.282Z,83.75
2023-02-09T04:38:53.143Z,82.75
2023-02-09T04:41:20.064Z,84.45
2023-02-09T04:43:47.637Z,88.93
2023-02-09T04:46:17.956Z,88.63
2023-02-09T04:48:45.939Z,85.30
2023-02-09T04:51:13.451Z,83.28
2023-02-09T04:53:40.385Z,87.30
2023-02-09T04:56:07.559Z,88.82
2023-02-09T04:58:53.199Z,85.57
2023-02-09T05:01:23.927Z,87.45
2023-02-09T05:03:51.607Z,92.95
2023-02-09T05:06:19.533Z,84.68
2023-02-09T05:08:46.836Z,87.75
2023-02-09T05:11:13.705Z,83.97
2023-02-09T05:13:40.685Z,104.70
2023-02-09T05:16:10.342Z,106.20
2023-02-09T05:18:37.182Z,89.55
2023-02-09T05:21:04.346Z,87.43
2023-02-09T05:23:31.313Z,83.43
2023-02-09T05:25:58.353Z,93.00
2023-02-09T05:28:25.840Z,103.63
2023-02-09T05:30:53.985Z,98.75
2023-02-09T05:33:25.844Z,93.03
2023-02-09T05:35:55.851Z,93.70
2023-02-09T05:38:23.419Z,95.05
2023-02-09T05:40:50.985Z,102.68
2023-02-09T05:43:18.555Z,97.80
2023-02-09T05:45:46.641Z,91.05
2023-02-09T05:48:13.648Z,96.63
2023-02-09T05:50:40.486Z,93.25
2023-02-09T05:53:08.615Z,96.18
2023-02-09T05:55:35.659Z,81.70
2023-02-09T05:58:02.500Z,88.10
2023-02-09T06:00:29.916Z,85.47
2023-02-09T06:02:57.102Z,82.25
2023-02-09T06:05:24.565Z,84.43
2023-02-09T06:07:51.492Z,85.93
2023-02-09T06:10:18.780Z,87.30
2023-02-09T06:12:45.737Z,83.57
2023-02-09T06:15:13.030Z,81.97
2023-02-09T06:17:39.869Z,84.78
2023-02-09T06:20:07.343Z,85.45
2023-02-09T06:22:34.458Z,87.60
2023-02-09T06:25:01.296Z,82.50
2023-02-09T06:27:28.131Z,82.47
2023-02-09T06:29:55.037Z,86.82
2023-02-09T06:32:21.870Z,86.45
2023-02-09T06:34:48.696Z,91.57
2023-02-09T06:37:16.637Z,82.38
2023-02-09T06:39:43.530Z,90.03
2023-02-09T06:42:10.360Z,89.90
2023-02-09T06:44:37.156Z,100.22
2023-02-09T06:47:04.743Z,107.28
2023-02-09T06:49:31.577Z,104.05
2023-02-09T06:51:58.616Z,124.57
2023-02-09T06:54:25.798Z,108.88
2023-02-09T06:56:52.635Z,120.25
2023-02-09T06:59:19.738Z,102.32
2023-02-09T07:01:48.976Z,111.72
2023-02-09T07:04:15.829Z,106.70
2023-02-09T07:06:42.699Z,115.60
2023-02-09T07:09:09.588Z,105.40
2023-02-09T07:11:36.986Z,104.05
2023-02-09T07:14:03.795Z,101.55
2023-02-09T07:16:30.633Z,88.00
2023-02-09T07:19:00.467Z,91.57
2023-02-09T07:21:27.404Z,91.28
2023-02-09T07:23:54.186Z,94.20
2023-02-09T07:26:21.094Z,93.88
2023-02-09T07:28:48.134Z,103.38
2023-02-09T07:31:17.028Z,95.85
2023-02-09T07:33:44.437Z,106.38
2023-02-09T07:36:14.914Z,101.10
2023-02-09T07:38:42.361Z,97.80
2023-02-09T07:41:20.201Z,97.00
2023-02-09T07:43:47.696Z,94.90
2023-02-09T07:46:17.840Z,96.95
2023-02-09T07:48:44.829Z,96.90
2023-02-09T07:51:25.139Z,91.10
2023-02-09T07:53:53.460Z,94.57
2023-02-09T07:56:20.673Z,90.63
2023-02-09T07:58:47.584Z,88.50
2023-02-09T08:01:15.861Z,95.57
2023-02-09T08:03:46.663Z,89.80
2023-02-09T08:06:26.051Z,91.00
2023-02-09T08:08:57.290Z,92.53
2023-02-09T08:11:40.179Z,86.93
2023-02-09T08:16:49.951Z,84.57
2023-02-09T08:19:23.395Z,89.10
2023-02-09T08:21:51.849Z,86.65
2023-02-09T08:24:21.566Z,92.88
2023-02-09T08:26:51.214Z,87.47
2023-02-09T08:29:18.288Z,91.53
2023-02-09T08:31:45.387Z,91.47
2023-02-09T08:34:12.314Z,84.78
2023-02-09T08:36:41.425Z,85.20
2023-02-09T08:39:09.702Z,94.45
2023-02-09T08:41:36.565Z,91.95
2023-02-09T08:44:03.722Z,89.40
2023-02-09T08:46:30.910Z,87.63
2023-02-09T08:48:57.921Z,88.65
2023-02-09T08:51:24.764Z,85.95
2023-02-09T08:53:52.587Z,85.72
2023-02-09T08:56:21.945Z,87.50
2023-02-09T08:58:49.991Z,94.05
2023-02-09T09:01:16.965Z,87.18
2023-02-09T09:03:43.966Z,89.53
2023-02-09T09:06:12.357Z,86.70
2023-02-09T09:08:40.810Z,85.38
2023-02-09T09:11:12.852Z,87.22
2023-02-09T09:13:41.581Z,81.85
2023-02-09T09:16:19.781Z,91.28
2023-02-09T09:18:47.141Z,84.07
2023-02-09T09:21:16.911Z,89.35
2023-02-09T09:23:46.361Z,103.55
2023-02-09T09:26:15.714Z,91.30
2023-02-09T09:28:43.354Z,103.18
2023-02-09T09:31:16.617Z,107.85
2023-02-09T09:33:45.902Z,84.85
2023-02-09T09:36:14.710Z,89.03
2023-02-09T09:38:41.702Z,82.82
2023-02-09T09:41:41.091Z,84.65
2023-02-09T09:44:27.312Z,81.47
2023-02-09T09:47:00.982Z,81.88
2023-02-09T09:49:31.440Z,87.78
2023-02-09T09:52:12.818Z,83.35
2023-02-09T09:54:42.195Z,92.65
2023-02-09T09:57:28.789Z,118.15
2023-02-09T09:59:57.590Z,85.38
2023-02-09T10:02:33.183Z,85.82
2023-02-09T10:05:17.540Z,84.57
2023-02-09T10:07:59.572Z,72.20
2023-02-09T10:11:05.144Z,82.63
2023-02-09T10:13:51.549Z,76.60
2023-02-09T10:16:25.425Z,79.75
2023-02-09T10:19:05.950Z,89.10
2023-02-09T10:21:36.228Z,82.65
2023-02-09T10:24:12.292Z,87.15
2023-02-09T10:26:40.751Z,82.80
2023-02-09T10:29:29.263Z,114.70
2023-02-09T10:32:20.179Z,95.32
2023-02-09T10:34:53.753Z,119.38
2023-02-09T10:37:38.852Z,89.88
2023-02-09T10:40:17.282Z,101.82
2023-02-09T10:42:57.380Z,78.80
2023-02-09T10:45:41.142Z,77.60
2023-02-09T10:48:19.250Z,82.68
2023-02-09T10:51:18.900Z,81.03
2023-02-09T10:54:19.334Z,100.35
2023-02-09T10:56:49.259Z,100.43
2023-02-09T10:59:22.857Z,87.00
2023-02-09T11:02:02.043Z,81.25
2023-02-09T11:04:40.651Z,79.95
2023-02-09T11:07:19.512Z,76.50
2023-02-09T11:09:50.763Z,75.28
2023-02-09T11:12:20.479Z,75.03
2023-02-09T11:14:47.338Z,71.75
2023-02-09T11:17:29.658Z,73.60
2023-02-09T11:20:30.771Z,81.90
2023-02-09T11:23:31.633Z,132.68
2023-02-09T11:26:10.535Z,91.40
2023-02-09T11:29:20.731Z,82.35
2023-02-09T11:32:12.211Z,166.35
2023-02-09T11:35:16.302Z,123.68
2023-02-09T11:38:11.629Z,91.75
2023-02-09T11:40:46.193Z,70.97
2023-02-09T11:43:24.718Z,118.38
2023-02-09T11:46:00.391Z,149.55
2023-02-09T11:48:45.644Z,93.40
2023-02-09T11:51:21.013Z,82.43
2023-02-09T11:54:14.254Z,103.78
2023-02-09T11:56:55.884Z,194.88
2023-02-09T11:59:45.706Z,80.15
2023-02-09T12:02:47.319Z,77.03
2023-02-09T12:05:19.917Z,201.98
2023-02-09T12:07:58.437Z,159.98
2023-02-09T12:10:42.170Z,67.53
2023-02-09T12:13:20.478Z,65.80
2023-02-09T12:16:17.924Z,143.75
2023-02-09T12:18:46.390Z,69.03
2023-02-09T12:21:23.975Z,66.40
2023-02-09T12:23:50.847Z,101.57
2023-02-09T12:26:17.612Z,135.77
2023-02-09T12:29:03.357Z,83.93
2023-02-09T12:32:04.274Z,100.85
2023-02-09T12:34:42.530Z,99.07
2023-02-09T12:37:29.543Z,74.18
2023-02-09T12:40:11.240Z,61.40
2023-02-09T12:42:45.989Z,62.67
2023-02-09T12:45:38.332Z,86.32
2023-02-09T12:48:07.954Z,87.28
2023-02-09T12:50:43.738Z,96.32
2023-02-09T12:53:23.014Z,131.77
2023-02-09T12:56:27.102Z,95.03
2023-02-09T12:59:12.736Z,129.18
2023-02-09T13:02:07.724Z,93.07
2023-02-09T13:05:18.278Z,126.32
2023-02-09T13:08:13.209Z,128.18
2023-02-09T13:11:14.039Z,74.30
2023-02-09T13:13:51.120Z,70.22
2023-02-09T13:16:36.490Z,63.40
2023-02-09T13:19:51.846Z,69.75
2023-02-09T13:22:28.159Z,60.03
2023-02-09T13:25:18.190Z,66.00
2023-02-09T13:27:49.473Z,65.82
2023-02-09T13:30:32.335Z,66.50
2023-02-09T13:33:35.326Z,69.00
2023-02-09T13:36:24.976Z,77.90
2023-02-09T13:38:53.066Z,70.93
2023-02-09T13:41:39.176Z,69.38
2023-02-09T13:44:32.040Z,66.75
2023-02-09T13:47:07.171Z,75.65
2023-02-09T13:49:34.116Z,81.90
2023-02-09T13:52:20.848Z,75.07
2023-02-09T13:54:47.902Z,67.35
2023-02-09T13:57:28.637Z,74.78
2023-02-09T14:00:01.846Z,69.30
2023-02-09T14:02:28.918Z,73.15
2023-02-09T14:05:01.927Z,83.05
2023-02-09T14:10:21.208Z,67.10
2023-02-09T14:13:00.679Z,82.30
2023-02-09T14:16:03.925Z,73.50
2023-02-09T14:18:45.954Z,102.15
2023-02-09T14:21:15.491Z,90.35
2023-02-09T14:23:49.284Z,100.57
2023-02-09T14:26:24.674Z,107.47
2023-02-09T14:29:17.596Z,107.00
2023-02-09T14:31:52.365Z,81.32
2023-02-09T14:34:38.998Z,103.13
2023-02-09T14:37:11.939Z,91.28
2023-02-09T14:42:24.381Z,89.75
2023-02-09T14:44:58.464Z,80.47
2023-02-09T14:47:40.363Z,89.75
2023-02-09T14:50:12.705Z,72.68
2023-02-09T14:52:46.707Z,82.05
2023-02-09T14:55:27.052Z,70.60
2023-02-09T14:57:54.062Z,67.82
2023-02-09T15:00:30.546Z,63.10
2023-02-09T15:02:59.941Z,64.82
2023-02-09T15:05:28.955Z,63.72
2023-02-09T15:08:05.784Z,64.28
2023-02-09T15:10:42.873Z,69.43
2023-02-09T15:13:15.158Z,63.55
2023-02-09T15:15:43.246Z,62.63
2023-02-09T15:18:40.343Z,70.28
2023-02-09T15:21:07.166Z,73.07
2023-02-09T15:23:33.955Z,68.22
2023-02-09T15:26:01.720Z,70.47
2023-02-09T15:28:29.780Z,76.47
2023-02-09T15:30:58.805Z,76.70
2023-02-09T15:33:27.267Z,78.30
2023-02-09T15:35:54.867Z,74.80
2023-02-09T15:38:21.959Z,79.85
2023-02-09T15:41:10.131Z,116.68
2023-02-09T15:43:55.639Z,112.32
2023-02-09T15:46:41.245Z,194.18
2023-02-09T15:49:08.200Z,90.10
2023-02-09T15:51:38.760Z,85.68
2023-02-09T15:54:18.883Z,84.50
2023-02-09T15:56:46.273Z,86.93
2023-02-09T15:59:22.765Z,84.85
2023-02-09T16:01:50.782Z,78.75
2023-02-09T16:04:18.199Z,89.93
2023-02-09T16:06:55.127Z,76.90
2023-02-09T16:09:28.090Z,78.28
2023-02-09T16:14:26.909Z,111.32
2023-02-09T16:16:53.856Z,88.90
2023-02-09T16:19:22.117Z,80.28
2023-02-09T16:21:58.295Z,85.20
2023-02-09T16:25:00.819Z,77.35
2023-02-09T16:27:28.998Z,81.78
2023-02-09T16:29:58.585Z,94.25
2023-02-09T16:32:28.617Z,86.43
2023-02-09T16:35:07.310Z,78.18
2023-02-09T16:37:34.741Z,76.30
2023-02-09T16:40:02.224Z,76.22
2023-02-09T16:42:29.693Z,74.70
2023-02-09T16:44:56.970Z,77.70
2023-02-09T16:47:28.475Z,76.40
2023-02-09T16:50:13.391Z,71.57
2023-02-09T16:52:43.862Z,71.18
2023-02-09T16:55:22.444Z,69.63
2023-02-09T16:57:51.426Z,68.68
2023-02-09T17:00:18.839Z,70.03
2023-02-09T17:03:15.418Z,68.78
2023-02-09T17:05:47.996Z,75.38
2023-02-09T17:08:22.047Z,73.25
2023-02-09T17:10:53.013Z,68.75
2023-02-09T17:13:23.034Z,68.05
2023-02-09T17:15:57.550Z,91.25
2023-02-09T17:18:28.600Z,70.15
2023-02-09T17:21:04.226Z,114.72
2023-02-09T17:23:31.414Z,67.47
2023-02-09T17:25:59.101Z,68.10
2023-02-09T17:28:27.600Z,64.57
2023-02-09T17:31:02.339Z,87.80
2023-02-09T17:33:35.145Z,67.93
2023-02-09T17:36:26.313Z,70.40
2023-02-09T17:38:51.621Z,65.97
2023-02-09T17:41:28.590Z,72.28
2023-02-09T17:44:13.923Z,67.68
2023-02-09T17:46:46.764Z,92.82
2023-02-09T17:49:13.863Z,85.75
2023-02-09T17:51:44.480Z,65.82
2023-02-09T17:54:15.296Z,63.53
2023-02-09T17:56:42.976Z,59.33
2023-02-09T17:59:10.456Z,62.15
2023-02-09T18:01:45.110Z,59.90
2023-02-09T18:04:26.871Z,61.97
2023-02-09T18:06:56.627Z,64.55
2023-02-09T18:09:24.515Z,63.85
2023-02-09T18:11:52.230Z,65.32
2023-02-09T18:14:22.237Z,58.83
2023-02-09T18:16:50.267Z,62.30
2023-02-09T18:19:17.421Z,54.85
2023-02-09T18:21:59.859Z,74.68
2023-02-09T18:24:31.752Z,71.20
2023-02-09T18:26:59.130Z,133.97
2023-02-09T18:29:29.315Z,104.13
2023-02-09T18:31:58.775Z,55.15
2023-02-09T18:34:27.038Z,67.90
2023-02-09T18:36:54.161Z,59.00
2023-02-09T18:39:21.414Z,50.65
2023-02-09T18:41:54.843Z,50.70
2023-02-09T18:44:28.647Z,50.70
2023-02-09T18:46:57.963Z,48.63
2023-02-09T18:49:26.141Z,51.15
2023-02-09T18:51:53.645Z,45.35
2023-02-09T18:54:22.142Z,47.40
2023-02-09T18:56:49.091Z,43.92
2023-02-09T18:59:17.701Z,50.88
2023-02-09T19:01:45.181Z,48.38
2023-02-09T19:04:13.364Z,45.10
2023-02-09T19:06:40.446Z,49.28
2023-02-09T19:09:07.408Z,46.72
2023-02-09T19:11:34.449Z,47.40
2023-02-09T19:14:26.718Z,45.13
2023-02-09T19:16:54.274Z,45.40
2023-02-09T19:19:21.261Z,48.13
2023-02-09T19:21:52.103Z,46.33
2023-02-09T19:24:19.229Z,45.03
2023-02-09T19:26:46.202Z,46.47
2023-02-09T19:29:13.926Z,43.15
2023-02-09T19:31:41.004Z,51.88
2023-02-09T19:34:08.006Z,43.65
2023-02-09T19:36:35.000Z,45.97
2023-02-09T19:39:02.240Z,42.25
2023-02-09T19:41:29.281Z,46.75
2023-02-09T19:43:58.304Z,49.78
2023-02-09T19:46:25.745Z,44.40
2023-02-09T19:48:57.450Z,41.53
2023-02-09T19:51:25.097Z,38.63
2023-02-09T19:53:52.080Z,41.40
2023-02-09T19:56:23.342Z,39.42
2023-02-09T19:58:51.757Z,39.58
2023-02-09T20:01:20.546Z,41.40
2023-02-09T20:03:49.569Z,41.83
2023-02-09T20:06:17.128Z,36.80
2023-02-09T20:08:44.613Z,39.00
2023-02-09T20:11:17.249Z,37.72
2023-02-09T20:13:44.831Z,36.67
2023-02-09T20:16:23.988Z,35.83
2023-02-09T20:18:52.454Z,41.92
2023-02-09T20:21:22.684Z,37.13
2023-02-09T20:23:54.064Z,38.55
2023-02-09T20:26:29.099Z,36.78
2023-02-09T20:28:59.509Z,37.65
2023-02-09T20:31:29.974Z,33.67
2023-02-09T20:33:56.922Z,36.60
2023-02-09T20:36:25.522Z,32.60
2023-02-09T20:38:52.855Z,36.30
2023-02-09T20:41:19.852Z,34.63
2023-02-09T20:44:06.577Z,36.70
2023-02-09T20:46:43.444Z,32.60
2023-02-09T20:49:16.472Z,34.60
2023-02-09T20:51:46.006Z,35.10
2023-02-09T20:54:15.924Z,34.17
2023-02-09T20:56:43.343Z,36.53
2023-02-09T20:59:11.394Z,33.10
2023-02-09T21:01:39.059Z,33.58
2023-02-09T21:04:07.308Z,35.33
2023-02-09T21:06:37.193Z,38.97
2023-02-09T21:09:11.975Z,37.47
2023-02-09T21:11:39.330Z,34.50
2023-02-09T21:14:06.308Z,36.25
2023-02-09T21:16:33.683Z,36.65
2023-02-09T21:19:01.049Z,32.78
2023-02-09T21:21:29.873Z,33.72
2023-02-09T21:23:56.784Z,33.10
2023-02-09T21:26:24.486Z,32.63
2023-02-09T21:28:56.088Z,30.20
2023-02-09T21:31:26.654Z,29.50
2023-02-09T21:33:54.217Z,32.78
2023-02-09T21:36:21.191Z,32.15
2023-02-09T21:38:48.132Z,32.97
2023-02-09T21:41:43.948Z,32.80
2023-02-09T21:44:12.559Z,31.33
2023-02-09T21:46:39.540Z,30.00
2023-02-09T21:49:07.064Z,28.42
2023-02-09T21:51:34.755Z,35.15
2023-02-09T21:54:01.631Z,27.60
2023-02-09T21:56:28.570Z,30.13
2023-02-09T21:58:55.709Z,31.48
2023-02-09T22:01:22.718Z,31.48
2023-02-09T22:03:56.874Z,32.55
2023-02-09T22:06:25.335Z,29.60
2023-02-09T22:08:52.658Z,30.10
2023-02-09T22:11:19.855Z,28.27
2023-02-09T22:13:46.715Z,28.45
2023-02-09T22:16:20.653Z,27.30
2023-02-09T22:18:48.276Z,29.55
2023-02-09T22:21:15.776Z,29.65
2023-02-09T22:23:43.053Z,28.80
2023-02-09T22:26:13.656Z,27.92
2023-02-09T22:28:42.276Z,26.33
2023-02-09T22:31:13.473Z,27.00
2023-02-09T22:33:40.585Z,27.70
2023-02-09T22:36:12.350Z,26.80
2023-02-09T22:38:40.167Z,26.98
2023-02-09T22:41:23.509Z,27.27
2023-02-09T22:43:58.868Z,26.60
2023-02-09T22:46:30.411Z,26.05
2023-02-09T22:49:01.783Z,27.13
2023-02-09T22:51:31.118Z,24.58
2023-02-09T22:53:59.737Z,24.35
2023-02-09T22:56:28.962Z,28.58
2023-02-09T22:58:57.795Z,26.50
2023-02-09T23:01:25.253Z,25.00
2023-02-09T23:03:52.676Z,23.42
2023-02-09T23:06:27.208Z,23.95
2023-02-09T23:09:02.135Z,23.08
2023-02-09T23:11:30.772Z,24.33
2023-02-09T23:14:14.202Z,25.60
2023-02-09T23:16:43.821Z,23.35
2023-02-09T23:19:19.154Z,25.88
2023-02-09T23:21:49.894Z,24.30
2023-02-09T23:24:21.734Z,22.63
2023-02-09T23:26:49.220Z,22.17
2023-02-09T23:29:17.553Z,26.48
2023-02-09T23:31:46.454Z,25.38
2023-02-09T23:34:22.681Z,24.67
2023-02-09T23:36:49.920Z,24.52
2023-02-09T23:39:21.300Z,27.25
2023-02-09T23:41:48.373Z,24.90
2023-02-09T23:44:15.264Z,26.42
2023-02-09T23:46:42.357Z,24.52
2023-02-09T23:49:09.284Z,25.58
2023-02-09T23:51:37.565Z,26.20
2023-02-09T23:54:07.271Z,27.83
2023-02-09T23:56:37.219Z,26.38
2023-02-09T23:59:07.385Z,24.45
